Time;durP1;ratioP1;P1;durP2;ratioP2;P2;SDS_P1;SDS_P2;PMS_P1;PMS_P2;Temp;Humidity;BMP_temperature;BMP_pressure;BME280_temperature;BME280_humidity;BME280_pressure;Samples;Min_cycle;Max_cycle;Signal;HPM_P1;HPM_P2
2020/12/31 00:00:16;;;;;;;8.00;4.30;;;;;;;;;;5063346;28;20601;-83
2020/12/31 00:02:43;;;;;;;5.90;4.60;;;;;;;;;;5058251;28;20578;-81
2020/12/31 00:05:11;;;;;;;8.43;5.20;;;;;;;;;;5048058;28;20216;-89
2020/12/31 00:07:37;;;;;;;6.10;5.00;;;;;;;;;;5048689;28;20191;-81
2020/12/31 00:10:05;;;;;;;6.32;4.65;;;;;;;;;;5048411;28;20197;-84
2020/12/31 00:12:32;;;;;;;6.95;5.78;;;;;;;;;;5048849;28;20285;-84
2020/12/31 00:14:59;;;;;;;7.60;5.60;;;;;;;;;;5050236;28;20229;-83
2020/12/31 00:17:26;;;;;;;8.00;5.45;;;;;;;;;;5050187;28;20195;-83
2020/12/31 00:19:53;;;;;;;7.15;5.80;;;;;;;;;;5050619;28;20191;-79
2020/12/31 00:22:20;;;;;;;6.82;5.18;;;;;;;;;;5061042;28;20339;-83
2020/12/31 00:24:47;;;;;;;6.57;5.50;;;;;;;;;;5064765;28;20217;-79
2020/12/31 00:27:14;;;;;;;7.47;5.57;;;;;;;;;;5057376;28;20615;-79
2020/12/31 00:29:41;;;;;;;7.70;5.70;;;;;;;;;;5047332;28;20823;-77
2020/12/31 00:32:08;;;;;;;8.05;5.40;;;;;;;;;;5048385;28;20221;-79
2020/12/31 00:34:34;;;;;;;8.23;6.40;;;;;;;;;;5048992;28;20223;-79
2020/12/31 00:37:01;;;;;;;7.18;6.10;;;;;;;;;;5050202;28;20193;-79
2020/12/31 00:39:30;;;;;;;9.15;6.10;;;;;;;;;;5050093;28;20259;-77
2020/12/31 00:41:57;;;;;;;8.85;6.18;;;;;;;;;;5050680;28;20203;-78
2020/12/31 00:44:23;;;;;;;8.10;5.97;;;;;;;;;;5058333;28;20247;-77
2020/12/31 00:46:50;;;;;;;7.40;5.88;;;;;;;;;;5064218;28;20208;-78
2020/12/31 00:49:17;;;;;;;7.55;5.43;;;;;;;;;;5068629;28;20281;-80
2020/12/31 00:51:44;;;;;;;7.50;5.93;;;;;;;;;;5053291;28;20634;-78
2020/12/31 00:54:11;;;;;;;7.15;5.85;;;;;;;;;;5051192;28;20230;-79
2020/12/31 00:56:38;;;;;;;9.32;6.55;;;;;;;;;;5052120;28;20289;-78
2020/12/31 00:59:05;;;;;;;9.43;7.80;;;;;;;;;;5054018;28;20195;-77
2020/12/31 01:01:32;;;;;;;7.85;6.75;;;;;;;;;;5053811;28;20205;-80
2020/12/31 01:03:59;;;;;;;9.00;6.05;;;;;;;;;;5052842;28;20638;-79
2020/12/31 01:06:26;;;;;;;8.15;6.75;;;;;;;;;;5060417;28;20187;-77
2020/12/31 01:08:52;;;;;;;11.45;6.40;;;;;;;;;;5067858;28;20194;-80
2020/12/31 01:11:19;;;;;;;8.27;6.40;;;;;;;;;;5066797;28;20268;-79
2020/12/31 01:13:47;;;;;;;8.10;5.80;;;;;;;;;;5051122;28;20275;-80
2020/12/31 01:16:14;;;;;;;10.98;6.88;;;;;;;;;;5051438;28;20710;-79
2020/12/31 01:18:41;;;;;;;7.38;6.13;;;;;;;;;;5051440;28;20612;-77
2020/12/31 01:21:11;;;;;;;7.18;5.47;;;;;;;;;;5068357;28;20538;-80
2020/12/31 01:23:38;;;;;;;6.00;5.30;;;;;;;;;;5073541;28;20225;-78
2020/12/31 01:26:05;;;;;;;7.28;5.40;;;;;;;;;;5073552;28;20190;-77
2020/12/31 01:28:32;;;;;;;11.57;5.93;;;;;;;;;;5071488;28;21436;-78
2020/12/31 01:31:00;;;;;;;9.23;6.20;;;;;;;;;;5067644;28;20207;-78
2020/12/31 01:33:27;;;;;;;5.70;5.10;;;;;;;;;;5056444;28;20210;-75
2020/12/31 01:35:54;;;;;;;5.97;5.03;;;;;;;;;;5051173;28;20198;-79
2020/12/31 01:38:20;;;;;;;8.77;5.32;;;;;;;;;;5050888;28;20221;-79
2020/12/31 01:40:48;;;;;;;6.80;5.28;;;;;;;;;;5051438;28;20194;-77
2020/12/31 01:43:15;;;;;;;8.45;6.28;;;;;;;;;;5053065;28;20306;-77
2020/12/31 01:45:42;;;;;;;7.22;5.50;;;;;;;;;;5051913;28;20195;-80
2020/12/31 01:48:10;;;;;;;6.80;5.28;;;;;;;;;;5052511;28;20195;-79
2020/12/31 01:50:36;;;;;;;8.70;6.30;;;;;;;;;;5056928;28;20225;-79
2020/12/31 01:53:03;;;;;;;7.15;5.10;;;;;;;;;;5067327;28;20218;-78
2020/12/31 01:55:30;;;;;;;6.32;5.18;;;;;;;;;;5069628;28;20222;-79
2020/12/31 01:57:57;;;;;;;6.03;5.38;;;;;;;;;;5070290;28;20686;-81
2020/12/31 02:00:24;;;;;;;7.50;5.60;;;;;;;;;;5070637;28;20198;-80
2020/12/31 02:02:50;;;;;;;7.80;5.28;;;;;;;;;;5057207;28;20187;-80
2020/12/31 02:05:18;;;;;;;6.65;4.95;;;;;;;;;;5052605;28;20199;-77
2020/12/31 02:07:46;;;;;;;7.05;4.72;;;;;;;;;;5052567;28;20244;-77
2020/12/31 02:10:14;;;;;;;8.68;6.00;;;;;;;;;;5051606;28;20614;-78
2020/12/31 02:12:41;;;;;;;12.48;5.50;;;;;;;;;;5054540;28;20205;-80
2020/12/31 02:15:08;;;;;;;6.60;5.05;;;;;;;;;;5066469;28;20588;-79
2020/12/31 02:17:35;;;;;;;7.03;5.45;;;;;;;;;;5068604;28;20548;-76
2020/12/31 02:20:01;;;;;;;9.05;5.22;;;;;;;;;;5050294;28;20191;-78
2020/12/31 02:22:29;;;;;;;7.05;5.35;;;;;;;;;;5050249;28;20282;-78
2020/12/31 02:24:56;;;;;;;7.63;5.50;;;;;;;;;;5050428;28;20737;-78
2020/12/31 02:27:23;;;;;;;5.78;5.25;;;;;;;;;;5051569;28;20209;-79
2020/12/31 02:29:51;;;;;;;7.80;5.75;;;;;;;;;;5052139;28;20745;-81
2020/12/31 02:32:18;;;;;;;7.38;5.60;;;;;;;;;;5052072;28;20321;-78
2020/12/31 02:34:45;;;;;;;7.43;5.43;;;;;;;;;;5051998;28;20698;-77
2020/12/31 02:37:11;;;;;;;6.75;5.03;;;;;;;;;;5066474;28;20202;-78
2020/12/31 02:39:39;;;;;;;6.40;4.90;;;;;;;;;;5067658;28;20186;-78
2020/12/31 02:42:06;;;;;;;6.68;5.18;;;;;;;;;;5058743;28;20191;-77
2020/12/31 02:44:33;;;;;;;9.40;5.70;;;;;;;;;;5049606;28;20211;-80
2020/12/31 02:46:59;;;;;;;6.85;5.15;;;;;;;;;;5049550;28;20248;-79
2020/12/31 02:49:26;;;;;;;8.20;5.40;;;;;;;;;;5050587;28;20640;-79
2020/12/31 02:51:53;;;;;;;5.20;4.70;;;;;;;;;;5051755;28;20305;-79
2020/12/31 02:54:20;;;;;;;7.82;5.85;;;;;;;;;;5051646;28;20233;-77
2020/12/31 02:56:48;;;;;;;9.77;5.57;;;;;;;;;;5051099;28;20183;-78
2020/12/31 02:59:14;;;;;;;5.82;5.07;;;;;;;;;;5064228;28;20190;-76
2020/12/31 03:01:41;;;;;;;6.95;5.35;;;;;;;;;;5067044;28;20589;-78
2020/12/31 03:04:08;;;;;;;5.80;5.20;;;;;;;;;;5069611;28;20714;-77
2020/12/31 03:06:35;;;;;;;7.78;5.63;;;;;;;;;;5066536;28;20231;-81
2020/12/31 03:09:02;;;;;;;5.93;5.30;;;;;;;;;;5049749;28;20197;-81
2020/12/31 03:11:29;;;;;;;6.35;5.35;;;;;;;;;;5050124;28;20229;-78
2020/12/31 03:13:56;;;;;;;5.70;4.60;;;;;;;;;;5051481;28;20280;-80
2020/12/31 03:16:23;;;;;;;7.43;5.28;;;;;;;;;;5050584;28;20218;-78
2020/12/31 03:18:50;;;;;;;7.88;5.28;;;;;;;;;;5051761;28;20195;-77
2020/12/31 03:21:17;;;;;;;6.55;5.50;;;;;;;;;;5061873;28;20256;-76
2020/12/31 03:23:44;;;;;;;6.65;5.20;;;;;;;;;;5065034;28;20214;-77
2020/12/31 03:26:11;;;;;;;8.55;6.28;;;;;;;;;;5068743;28;20281;-77
2020/12/31 03:28:38;;;;;;;5.22;4.53;;;;;;;;;;5049629;28;20278;-78
2020/12/31 03:31:05;;;;;;;5.22;4.72;;;;;;;;;;5049379;28;20237;-77
2020/12/31 03:33:32;;;;;;;10.60;5.82;;;;;;;;;;5049992;28;20305;-80
2020/12/31 03:35:59;;;;;;;5.60;4.78;;;;;;;;;;5050912;28;20273;-78
2020/12/31 03:38:27;;;;;;;7.82;6.05;;;;;;;;;;5051176;28;20191;-79
2020/12/31 03:40:54;;;;;;;6.72;4.90;;;;;;;;;;5050588;28;20217;-78
2020/12/31 03:43:21;;;;;;;6.03;5.07;;;;;;;;;;5059132;28;20294;-78
2020/12/31 03:45:47;;;;;;;5.55;5.05;;;;;;;;;;5066235;28;20209;-79
2020/12/31 03:48:15;;;;;;;11.55;5.63;;;;;;;;;;5052938;28;20698;-78
2020/12/31 03:50:42;;;;;;;10.57;5.68;;;;;;;;;;5048663;28;20218;-77
2020/12/31 03:53:09;;;;;;;6.03;5.03;;;;;;;;;;5047630;28;20269;-80
2020/12/31 03:55:36;;;;;;;7.03;5.50;;;;;;;;;;5049189;28;20648;-80
2020/12/31 03:58:03;;;;;;;6.38;5.50;;;;;;;;;;5051653;28;20269;-78
2020/12/31 04:00:30;;;;;;;6.38;4.85;;;;;;;;;;5050382;28;20197;-78
2020/12/31 04:02:57;;;;;;;7.90;5.03;;;;;;;;;;5052146;28;20247;-78
2020/12/31 04:05:24;;;;;;;6.07;4.97;;;;;;;;;;5058974;28;20247;-79
2020/12/31 04:07:51;;;;;;;5.60;4.95;;;;;;;;;;5066253;28;20304;-77
2020/12/31 04:10:18;;;;;;;5.47;4.80;;;;;;;;;;5049991;28;20227;-79
2020/12/31 04:12:45;;;;;;;8.32;4.95;;;;;;;;;;5049537;28;20254;-78
2020/12/31 04:15:12;;;;;;;5.88;5.28;;;;;;;;;;5047795;28;20286;-77
2020/12/31 04:17:39;;;;;;;4.95;4.25;;;;;;;;;;5048315;28;20281;-80
2020/12/31 04:20:06;;;;;;;5.80;4.70;;;;;;;;;;5061757;28;20195;-79
2020/12/31 04:22:34;;;;;;;5.25;4.75;;;;;;;;;;5066828;28;20428;-79
2020/12/31 04:25:00;;;;;;;5.90;4.55;;;;;;;;;;5072108;28;20212;-78
2020/12/31 04:27:27;;;;;;;7.10;4.60;;;;;;;;;;5060110;28;20225;-77
2020/12/31 04:29:54;;;;;;;4.93;4.30;;;;;;;;;;5052656;28;20195;-77
2020/12/31 04:32:21;;;;;;;4.65;3.80;;;;;;;;;;5061742;28;20709;-77
2020/12/31 04:34:48;;;;;;;4.70;4.15;;;;;;;;;;5053116;28;20218;-78
2020/12/31 04:37:15;;;;;;;5.05;4.28;;;;;;;;;;5053759;28;20286;-79
2020/12/31 04:39:42;;;;;;;4.65;4.25;;;;;;;;;;5054192;28;20202;-80
2020/12/31 04:42:09;;;;;;;5.05;3.97;;;;;;;;;;5063612;28;20205;-78
2020/12/31 04:44:36;;;;;;;4.35;3.30;;;;;;;;;;5069158;28;20259;-78
2020/12/31 04:47:04;;;;;;;4.25;3.45;;;;;;;;;;5054106;28;20774;-78
2020/12/31 04:49:43;;;;;;;3.80;3.28;;;;;;;;;;5052375;28;20203;-78
2020/12/31 04:52:10;;;;;;;3.92;3.30;;;;;;;;;;5052252;28;20555;-78
2020/12/31 04:54:38;;;;;;;3.88;3.47;;;;;;;;;;5052888;28;20276;-81
2020/12/31 04:57:06;;;;;;;4.43;3.47;;;;;;;;;;5053550;28;20213;-80
2020/12/31 04:59:33;;;;;;;3.72;3.10;;;;;;;;;;5053769;28;20746;-78
2020/12/31 05:02:00;;;;;;;6.38;3.88;;;;;;;;;;5052909;28;20281;-79
2020/12/31 05:04:27;;;;;;;4.55;3.92;;;;;;;;;;5062592;28;20214;-79
2020/12/31 05:06:54;;;;;;;3.20;2.90;;;;;;;;;;5068454;28;20208;-80
2020/12/31 05:09:22;;;;;;;3.10;2.70;;;;;;;;;;5071339;28;20212;-79
2020/12/31 05:11:49;;;;;;;3.28;2.97;;;;;;;;;;5071875;28;20222;-80
2020/12/31 05:14:27;;;;;;;3.35;3.05;;;;;;;;;;5071628;28;20714;-77
2020/12/31 05:16:54;;;;;;;3.42;2.90;;;;;;;;;;5072094;28;20194;-79
2020/12/31 05:19:22;;;;;;;4.97;3.20;;;;;;;;;;5074070;28;20205;-80
2020/12/31 05:21:48;;;;;;;4.30;3.13;;;;;;;;;;5072625;28;20331;-77
2020/12/31 05:24:16;;;;;;;4.80;3.05;;;;;;;;;;5073786;28;20313;-79
2020/12/31 05:26:42;;;;;;;3.67;3.30;;;;;;;;;;5070060;28;20868;-80
2020/12/31 05:29:09;;;;;;;4.63;3.00;;;;;;;;;;5067235;28;20237;-80
2020/12/31 05:31:51;;;;;;;3.30;3.00;;;;;;;;;;5070995;28;20270;-77
2020/12/31 05:34:29;;;;;;;5.18;3.85;;;;;;;;;;5070400;28;20242;-80
2020/12/31 05:36:55;;;;;;;3.75;3.17;;;;;;;;;;5063043;28;20187;-77
2020/12/31 05:39:22;;;;;;;5.10;2.80;;;;;;;;;;5052422;28;20199;-80
2020/12/31 05:41:49;;;;;;;3.55;3.25;;;;;;;;;;5053424;28;20202;-78
2020/12/31 05:44:16;;;;;;;2.83;2.63;;;;;;;;;;5053161;28;20257;-80
2020/12/31 05:46:43;;;;;;;4.43;3.33;;;;;;;;;;5053363;28;20278;-80
2020/12/31 05:49:10;;;;;;;2.88;2.63;;;;;;;;;;5061734;28;20206;-80
2020/12/31 05:51:38;;;;;;;2.90;2.50;;;;;;;;;;5068023;28;20248;-80
2020/12/31 05:54:07;;;;;;;2.95;2.65;;;;;;;;;;5070418;28;20214;-79
2020/12/31 05:56:34;;;;;;;3.13;2.83;;;;;;;;;;5063085;28;20261;-80
2020/12/31 05:59:07;;;;;;;2.67;2.47;;;;;;;;;;5051047;28;20267;-79
2020/12/31 06:01:36;;;;;;;3.15;2.70;;;;;;;;;;5050774;28;20194;-81
2020/12/31 06:04:17;;;;;;;4.15;3.13;;;;;;;;;;5052861;28;20308;-81
2020/12/31 06:06:49;;;;;;;3.00;2.70;;;;;;;;;;5052698;28;20198;-81
2020/12/31 06:09:20;;;;;;;4.10;2.65;;;;;;;;;;5051108;28;20199;-80
2020/12/31 06:11:51;;;;;;;3.90;2.83;;;;;;;;;;5062717;28;20233;-81
2020/12/31 06:14:21;;;;;;;2.67;2.42;;;;;;;;;;5067916;28;20297;-79
2020/12/31 06:16:55;;;;;;;5.30;2.78;;;;;;;;;;5061814;28;20190;-82
2020/12/31 06:19:32;;;;;;;4.25;3.17;;;;;;;;;;5050262;28;20209;-81
2020/12/31 06:22:01;;;;;;;3.78;2.65;;;;;;;;;;5049673;28;20194;-78
2020/12/31 06:24:32;;;;;;;4.38;3.15;;;;;;;;;;5051531;28;20227;-80
2020/12/31 06:27:03;;;;;;;3.75;2.92;;;;;;;;;;5052429;28;20191;-81
2020/12/31 06:29:30;;;;;;;5.40;3.20;;;;;;;;;;5052228;28;20233;-80
2020/12/31 06:31:58;;;;;;;3.80;3.40;;;;;;;;;;5052535;28;20581;-79
2020/12/31 06:34:25;;;;;;;5.47;3.92;;;;;;;;;;5062665;28;20267;-81
2020/12/31 06:36:53;;;;;;;5.95;4.75;;;;;;;;;;5066692;28;20193;-76
2020/12/31 06:39:22;;;;;;;7.40;5.00;;;;;;;;;;5070020;28;20281;-81
2020/12/31 06:41:54;;;;;;;5.18;4.57;;;;;;;;;;5070093;28;20203;-80
2020/12/31 06:44:21;;;;;;;6.03;4.95;;;;;;;;;;5067923;28;20218;-85
2020/12/31 06:46:48;;;;;;;7.20;5.07;;;;;;;;;;5057759;28;20237;-80
2020/12/31 06:49:16;;;;;;;6.00;4.90;;;;;;;;;;5051082;28;20203;-80
2020/12/31 06:51:43;;;;;;;8.10;6.10;;;;;;;;;;5052264;28;20272;-79
2020/12/31 06:54:11;;;;;;;7.30;5.93;;;;;;;;;;5051993;28;20746;-84
2020/12/31 06:56:43;;;;;;;9.02;6.50;;;;;;;;;;5060547;28;20671;-81
2020/12/31 06:59:25;;;;;;;6.88;4.85;;;;;;;;;;5066176;28;20198;-79
2020/12/31 07:01:51;;;;;;;7.40;5.47;;;;;;;;;;5069619;28;20195;-80
2020/12/31 07:04:33;;;;;;;9.35;5.80;;;;;;;;;;5069612;28;20221;-79
2020/12/31 07:07:00;;;;;;;6.30;5.70;;;;;;;;;;5068964;28;20198;-84
2020/12/31 07:09:29;;;;;;;6.35;5.72;;;;;;;;;;5068904;28;20602;-83
2020/12/31 07:11:58;;;;;;;8.80;5.07;;;;;;;;;;5069726;28;20214;-82
2020/12/31 07:14:26;;;;;;;8.80;4.85;;;;;;;;;;5071763;28;20219;-81
2020/12/31 07:16:57;;;;;;;7.22;4.72;;;;;;;;;;5071404;28;20646;-82
2020/12/31 07:22:21;;;;;;;9.07;5.38;;;;;;;;;;5065784;28;20281;-78
2020/12/31 07:24:49;;;;;;;5.55;4.70;;;;;;;;;;5055488;28;20276;-79
2020/12/31 07:27:21;;;;;;;7.53;4.70;;;;;;;;;;5049446;28;20286;-81
2020/12/31 07:30:03;;;;;;;6.55;5.20;;;;;;;;;;5047275;28;20213;-88
2020/12/31 07:32:46;;;;;;;6.20;4.88;;;;;;;;;;5050327;28;20222;-86
2020/12/31 07:35:19;;;;;;;7.22;5.60;;;;;;;;;;5050638;28;20203;-85
2020/12/31 07:37:46;;;;;;;7.32;5.03;;;;;;;;;;5050679;28;20285;-88
2020/12/31 07:40:26;;;;;;;8.65;5.07;;;;;;;;;;5052728;28;20241;-86
2020/12/31 07:42:54;;;;;;;6.88;5.35;;;;;;;;;;5065173;28;20589;-78
2020/12/31 07:45:20;;;;;;;6.03;5.15;;;;;;;;;;5067565;28;20199;-78
2020/12/31 07:47:50;;;;;;;7.03;6.05;;;;;;;;;;5049805;28;20205;-78
2020/12/31 07:50:17;;;;;;;7.57;6.15;;;;;;;;;;5047725;28;20214;-78
2020/12/31 07:52:44;;;;;;;8.18;6.38;;;;;;;;;;5049250;28;20268;-78
2020/12/31 07:55:11;;;;;;;10.45;6.97;;;;;;;;;;5070804;28;20198;-79
2020/12/31 07:57:38;;;;;;;10.20;6.90;;;;;;;;;;5073060;28;20230;-79
2020/12/31 08:00:06;;;;;;;7.25;6.18;;;;;;;;;;5078001;28;20248;-78
2020/12/31 08:02:33;;;;;;;8.70;6.70;;;;;;;;;;5076982;28;20603;-80
2020/12/31 08:05:00;;;;;;;8.90;7.22;;;;;;;;;;5070252;28;20223;-79
2020/12/31 08:07:27;;;;;;;7.93;6.95;;;;;;;;;;5061628;28;20191;-78
2020/12/31 08:09:54;;;;;;;9.27;7.22;;;;;;;;;;5055227;28;20209;-79
2020/12/31 08:12:20;;;;;;;8.75;7.18;;;;;;;;;;5069270;28;20222;-80
2020/12/31 08:14:49;;;;;;;10.32;7.97;;;;;;;;;;5075611;28;20301;-79
2020/12/31 08:17:16;;;;;;;9.65;7.18;;;;;;;;;;5077018;28;20595;-81
2020/12/31 08:19:43;;;;;;;11.40;8.35;;;;;;;;;;5077410;28;20220;-80
2020/12/31 08:22:14;;;;;;;14.27;8.13;;;;;;;;;;5077525;28;20285;-79
2020/12/31 08:24:45;;;;;;;9.48;8.50;;;;;;;;;;5077027;28;20735;-80
2020/12/31 08:27:12;;;;;;;15.88;9.30;;;;;;;;;;5069559;28;21758;-80
2020/12/31 08:29:42;;;;;;;11.38;7.80;;;;;;;;;;5073962;28;20197;-82
2020/12/31 08:32:09;;;;;;;13.55;8.20;;;;;;;;;;5070525;28;20311;-78
2020/12/31 08:34:40;;;;;;;12.00;8.25;;;;;;;;;;5058721;28;20222;-82
2020/12/31 08:37:08;;;;;;;13.20;8.48;;;;;;;;;;5059060;28;20210;-78
2020/12/31 08:39:35;;;;;;;13.32;9.13;;;;;;;;;;5078704;28;20205;-78
2020/12/31 08:42:02;;;;;;;10.88;8.35;;;;;;;;;;5080119;28;20191;-78
2020/12/31 08:44:29;;;;;;;10.85;8.13;;;;;;;;;;5078301;28;20241;-79
2020/12/31 08:46:56;;;;;;;12.63;7.82;;;;;;;;;;5077053;28;20297;-81
2020/12/31 08:49:24;;;;;;;9.50;7.53;;;;;;;;;;5072541;28;20243;-76
2020/12/31 08:51:52;;;;;;;10.85;8.40;;;;;;;;;;5073313;28;20221;-79
2020/12/31 08:54:19;;;;;;;13.30;7.80;;;;;;;;;;5075691;28;20218;-80
2020/12/31 08:56:46;;;;;;;10.45;7.57;;;;;;;;;;5076354;28;20289;-76
2020/12/31 08:59:14;;;;;;;11.55;8.57;;;;;;;;;;5076393;28;20200;-80
2020/12/31 09:01:41;;;;;;;10.00;6.82;;;;;;;;;;5077969;28;20197;-80
2020/12/31 09:04:09;;;;;;;11.88;7.82;;;;;;;;;;5078591;28;20221;-77
2020/12/31 09:06:36;;;;;;;9.15;7.10;;;;;;;;;;5077970;28;20220;-83
2020/12/31 09:09:04;;;;;;;10.38;7.40;;;;;;;;;;5075198;28;20233;-77
2020/12/31 09:11:31;;;;;;;11.77;7.93;;;;;;;;;;5067240;28;20301;-77
2020/12/31 09:14:13;;;;;;;10.55;7.55;;;;;;;;;;5070625;28;20221;-78
2020/12/31 09:16:40;;;;;;;9.02;6.88;;;;;;;;;;5070847;28;20277;-79
2020/12/31 09:19:07;;;;;;;10.55;7.60;;;;;;;;;;5071946;28;20198;-76
2020/12/31 09:21:34;;;;;;;9.32;7.70;;;;;;;;;;5061006;28;20683;-80
2020/12/31 09:24:13;;;;;;;10.88;7.38;;;;;;;;;;5054278;28;20211;-78
2020/12/31 09:26:40;;;;;;;12.15;8.35;;;;;;;;;;5052506;28;20195;-79
2020/12/31 09:29:09;;;;;;;11.18;8.07;;;;;;;;;;5054040;28;20683;-80
2020/12/31 09:31:36;;;;;;;9.13;6.95;;;;;;;;;;5058987;28;20219;-82
2020/12/31 09:34:03;;;;;;;9.77;6.60;;;;;;;;;;5067439;28;20224;-80
2020/12/31 09:36:29;;;;;;;11.02;6.72;;;;;;;;;;5070491;28;20739;-76
2020/12/31 09:38:56;;;;;;;11.13;7.00;;;;;;;;;;5072311;28;20286;-79
2020/12/31 09:41:24;;;;;;;8.75;6.63;;;;;;;;;;5074364;28;20289;-80
2020/12/31 09:43:51;;;;;;;11.02;7.18;;;;;;;;;;5072015;28;20301;-80
2020/12/31 09:46:18;;;;;;;12.73;7.32;;;;;;;;;;5071337;28;20194;-80
2020/12/31 09:48:45;;;;;;;9.95;6.57;;;;;;;;;;5065600;28;20656;-78
2020/12/31 09:51:12;;;;;;;6.55;5.50;;;;;;;;;;5071259;28;20654;-78
2020/12/31 09:53:39;;;;;;;7.32;5.85;;;;;;;;;;5071381;28;20210;-79
2020/12/31 09:56:05;;;;;;;7.45;5.90;;;;;;;;;;5071392;28;20229;-74
2020/12/31 09:58:33;;;;;;;7.50;5.85;;;;;;;;;;5071299;28;20218;-79
2020/12/31 10:01:00;;;;;;;6.50;5.82;;;;;;;;;;5073292;28;20285;-78
2020/12/31 10:03:27;;;;;;;7.15;5.65;;;;;;;;;;5073069;28;20758;-76
2020/12/31 10:05:54;;;;;;;7.55;5.75;;;;;;;;;;5072959;28;20237;-77
2020/12/31 10:08:20;;;;;;;7.15;5.80;;;;;;;;;;5070470;28;20246;-78
2020/12/31 10:10:47;;;;;;;6.90;5.40;;;;;;;;;;5067019;28;21605;-78
2020/12/31 10:13:14;;;;;;;5.47;4.90;;;;;;;;;;5067161;28;20224;-77
2020/12/31 10:15:42;;;;;;;6.03;5.43;;;;;;;;;;5069286;28;20280;-78
2020/12/31 10:18:09;;;;;;;6.63;5.10;;;;;;;;;;5071049;28;20199;-78
2020/12/31 10:20:36;;;;;;;7.22;5.32;;;;;;;;;;5070407;28;20282;-80
2020/12/31 10:23:03;;;;;;;4.75;4.22;;;;;;;;;;5072532;28;20229;-76
2020/12/31 10:25:30;;;;;;;7.53;5.85;;;;;;;;;;5072185;28;20252;-79
2020/12/31 10:27:57;;;;;;;4.97;4.30;;;;;;;;;;5072824;28;20281;-78
2020/12/31 10:30:24;;;;;;;6.15;4.57;;;;;;;;;;5071645;28;20197;-80
2020/12/31 10:32:52;;;;;;;5.07;4.50;;;;;;;;;;5066539;28;20325;-77
2020/12/31 10:35:18;;;;;;;6.15;5.05;;;;;;;;;;5068622;28;20222;-78
2020/12/31 10:37:45;;;;;;;6.03;4.97;;;;;;;;;;5063490;28;20201;-79
2020/12/31 10:40:12;;;;;;;5.85;4.68;;;;;;;;;;5049921;28;20257;-79
2020/12/31 10:42:39;;;;;;;5.68;4.32;;;;;;;;;;5050404;28;20554;-78
2020/12/31 10:45:06;;;;;;;6.07;5.32;;;;;;;;;;5052013;28;20289;-79
2020/12/31 10:47:33;;;;;;;6.88;5.75;;;;;;;;;;5052171;28;20378;-82
2020/12/31 10:50:01;;;;;;;7.25;5.38;;;;;;;;;;5052128;28;20205;-82
2020/12/31 10:52:28;;;;;;;6.20;5.03;;;;;;;;;;5055240;28;20308;-77
2020/12/31 10:54:55;;;;;;;6.18;5.38;;;;;;;;;;5067251;28;20302;-79
2020/12/31 10:57:22;;;;;;;6.88;5.20;;;;;;;;;;5062090;28;20305;-83
2020/12/31 10:59:49;;;;;;;7.18;5.82;;;;;;;;;;5050373;28;20202;-79
2020/12/31 11:02:15;;;;;;;9.80;6.40;;;;;;;;;;5049660;28;20195;-79
2020/12/31 11:04:42;;;;;;;7.78;5.85;;;;;;;;;;5050145;28;20272;-83
2020/12/31 11:07:10;;;;;;;8.90;6.43;;;;;;;;;;5070085;28;20203;-80
2020/12/31 11:09:37;;;;;;;7.45;5.60;;;;;;;;;;5071893;28;20277;-79
2020/12/31 11:12:04;;;;;;;9.18;6.35;;;;;;;;;;5071673;28;20317;-80
2020/12/31 11:14:31;;;;;;;8.40;6.57;;;;;;;;;;5071691;28;20309;-82
2020/12/31 11:16:58;;;;;;;8.98;5.85;;;;;;;;;;5066229;28;20202;-80
2020/12/31 11:19:26;;;;;;;9.85;7.03;;;;;;;;;;5066335;28;20285;-81
2020/12/31 11:21:53;;;;;;;8.60;6.45;;;;;;;;;;5069642;28;20198;-83
2020/12/31 11:24:20;;;;;;;7.45;6.00;;;;;;;;;;5069199;28;20308;-82
2020/12/31 11:26:49;;;;;;;6.80;5.75;;;;;;;;;;5069647;28;20679;-81
2020/12/31 11:29:16;;;;;;;11.93;5.90;;;;;;;;;;5070061;28;20606;-83
2020/12/31 11:31:43;;;;;;;8.85;5.75;;;;;;;;;;5070717;28;20264;-83
2020/12/31 11:34:10;;;;;;;8.25;6.28;;;;;;;;;;5071287;28;20271;-85
2020/12/31 11:36:37;;;;;;;7.65;5.95;;;;;;;;;;5071310;28;20235;-78
2020/12/31 11:39:04;;;;;;;7.50;6.10;;;;;;;;;;5067395;28;20204;-78
2020/12/31 11:41:31;;;;;;;7.20;5.18;;;;;;;;;;5066478;28;20272;-80
2020/12/31 11:43:58;;;;;;;7.82;5.00;;;;;;;;;;5069220;28;20221;-82
2020/12/31 11:46:25;;;;;;;8.20;5.00;;;;;;;;;;5070323;28;20197;-81
2020/12/31 11:48:52;;;;;;;7.32;5.90;;;;;;;;;;5073711;28;20619;-79
2020/12/31 11:51:19;;;;;;;6.72;6.03;;;;;;;;;;5074209;28;20229;-86
2020/12/31 11:53:45;;;;;;;5.90;5.30;;;;;;;;;;5072398;28;20221;-82
2020/12/31 11:56:12;;;;;;;7.00;5.88;;;;;;;;;;5071662;28;20198;-82
2020/12/31 11:58:40;;;;;;;5.60;5.00;;;;;;;;;;5071724;28;20333;-81
2020/12/31 12:01:07;;;;;;;8.27;5.47;;;;;;;;;;5066943;28;20273;-82
2020/12/31 12:03:34;;;;;;;6.97;5.25;;;;;;;;;;5066027;28;20305;-79
2020/12/31 12:06:01;;;;;;;6.45;5.00;;;;;;;;;;5068363;28;20305;-79
2020/12/31 12:08:34;;;;;;;7.35;5.88;;;;;;;;;;5068715;28;20280;-83
2020/12/31 12:11:01;;;;;;;5.93;5.13;;;;;;;;;;5069211;28;20655;-80
2020/12/31 12:13:27;;;;;;;6.65;5.07;;;;;;;;;;5069455;28;20226;-81
2020/12/31 12:15:55;;;;;;;5.60;5.00;;;;;;;;;;5070905;28;20200;-82
2020/12/31 12:18:23;;;;;;;5.30;4.75;;;;;;;;;;5071244;28;20289;-81
2020/12/31 12:20:50;;;;;;;6.18;4.95;;;;;;;;;;5071103;28;20202;-83
2020/12/31 12:23:17;;;;;;;7.47;5.38;;;;;;;;;;5067218;28;20324;-81
2020/12/31 12:25:44;;;;;;;6.05;4.90;;;;;;;;;;5065035;28;20553;-84
2020/12/31 12:28:11;;;;;;;6.03;5.40;;;;;;;;;;5067946;28;20285;-79
2020/12/31 12:30:37;;;;;;;4.88;4.38;;;;;;;;;;5068221;28;20195;-79
2020/12/31 12:33:05;;;;;;;5.15;4.53;;;;;;;;;;5068562;28;20260;-80
2020/12/31 12:35:33;;;;;;;5.88;5.22;;;;;;;;;;5068167;28;20922;-83
2020/12/31 12:38:00;;;;;;;4.10;3.70;;;;;;;;;;5058333;28;20268;-83
2020/12/31 12:40:27;;;;;;;6.35;4.60;;;;;;;;;;5063761;28;20196;-80
2020/12/31 12:42:53;;;;;;;4.78;4.30;;;;;;;;;;5055187;28;20270;-84
2020/12/31 12:45:20;;;;;;;5.55;4.47;;;;;;;;;;5050753;28;20225;-80
2020/12/31 12:47:47;;;;;;;5.18;4.32;;;;;;;;;;5052875;28;20195;-87
2020/12/31 12:50:15;;;;;;;4.93;4.30;;;;;;;;;;5053883;28;20217;-85
2020/12/31 12:52:42;;;;;;;4.22;3.83;;;;;;;;;;5054191;28;20579;-86
2020/12/31 12:55:09;;;;;;;5.50;4.47;;;;;;;;;;5055750;28;20217;-85
2020/12/31 12:57:36;;;;;;;6.22;4.68;;;;;;;;;;5064127;28;20309;-82
2020/12/31 13:00:03;;;;;;;4.80;3.75;;;;;;;;;;5070212;28;20221;-86
2020/12/31 13:02:30;;;;;;;4.78;4.03;;;;;;;;;;5069829;28;20190;-88
2020/12/31 13:04:56;;;;;;;5.20;4.05;;;;;;;;;;5071573;28;20301;-83
2020/12/31 13:07:27;;;;;;;5.35;4.40;;;;;;;;;;5072006;28;20281;-86
2020/12/31 13:09:54;;;;;;;5.22;4.32;;;;;;;;;;5065775;28;20205;-86
2020/12/31 13:12:21;;;;;;;4.70;4.00;;;;;;;;;;5053092;28;20225;-82
2020/12/31 13:14:48;;;;;;;6.18;4.05;;;;;;;;;;5054067;28;20228;-80
2020/12/31 13:17:15;;;;;;;6.03;4.70;;;;;;;;;;5054378;28;20201;-81
2020/12/31 13:19:42;;;;;;;5.80;3.85;;;;;;;;;;5073956;28;20205;-80
2020/12/31 13:22:08;;;;;;;4.88;3.92;;;;;;;;;;5069952;28;20555;-78
2020/12/31 13:24:36;;;;;;;4.25;3.72;;;;;;;;;;5068498;28;20249;-78
2020/12/31 13:27:03;;;;;;;4.45;3.88;;;;;;;;;;5071135;28;20663;-77
2020/12/31 13:32:25;;;;;;;3.90;3.50;;;;;;;;;;5052279;28;20649;-81
2020/12/31 13:34:52;;;;;;;4.25;3.80;;;;;;;;;;5072194;28;20309;-79
2020/12/31 13:37:19;;;;;;;3.83;3.47;;;;;;;;;;5073777;28;20289;-85
2020/12/31 13:42:43;;;;;;;4.50;3.70;;;;;;;;;;5055392;28;20247;-82
2020/12/31 13:45:11;;;;;;;6.75;3.75;;;;;;;;;;5064913;28;20205;-82
2020/12/31 13:47:40;;;;;;;3.90;3.50;;;;;;;;;;5068687;28;20721;-84
2020/12/31 13:50:08;;;;;;;5.15;3.72;;;;;;;;;;5071437;28;20190;-82
2020/12/31 13:52:34;;;;;;;3.97;3.58;;;;;;;;;;5070906;28;20218;-84
2020/12/31 13:55:01;;;;;;;4.47;3.90;;;;;;;;;;5070669;28;20225;-83
2020/12/31 13:57:28;;;;;;;3.63;3.33;;;;;;;;;;5071771;28;20301;-80
2020/12/31 13:59:57;;;;;;;4.13;3.15;;;;;;;;;;5073355;28;20605;-84
2020/12/31 14:02:23;;;;;;;4.10;3.70;;;;;;;;;;5073961;28;20198;-81
2020/12/31 14:04:50;;;;;;;3.88;3.35;;;;;;;;;;5073213;28;20224;-81
2020/12/31 14:07:17;;;;;;;4.82;3.55;;;;;;;;;;5069114;28;20521;-79
2020/12/31 14:09:44;;;;;;;4.13;3.75;;;;;;;;;;5068173;28;20589;-82
2020/12/31 14:12:11;;;;;;;4.18;3.60;;;;;;;;;;5070135;28;20222;-81
2020/12/31 14:14:38;;;;;;;5.32;3.60;;;;;;;;;;5070328;28;20642;-81
2020/12/31 14:17:06;;;;;;;4.88;3.75;;;;;;;;;;5070899;28;20285;-84
2020/12/31 14:19:33;;;;;;;5.13;3.83;;;;;;;;;;5071387;28;20208;-84
2020/12/31 14:22:00;;;;;;;4.55;4.10;;;;;;;;;;5072829;28;20281;-83
2020/12/31 14:24:27;;;;;;;5.00;3.90;;;;;;;;;;5072665;28;20575;-84
2020/12/31 14:26:57;;;;;;;5.60;4.22;;;;;;;;;;5072724;28;20551;-81
2020/12/31 14:29:24;;;;;;;5.40;4.03;;;;;;;;;;5068622;28;20194;-80
2020/12/31 14:31:50;;;;;;;4.60;4.18;;;;;;;;;;5067662;28;20214;-81
2020/12/31 14:34:18;;;;;;;5.47;4.50;;;;;;;;;;5070014;28;20210;-80
2020/12/31 14:36:46;;;;;;;6.28;4.70;;;;;;;;;;5069679;28;20289;-85
2020/12/31 14:39:14;;;;;;;5.97;4.75;;;;;;;;;;5070253;28;20197;-81
2020/12/31 14:41:41;;;;;;;4.75;4.25;;;;;;;;;;5070688;28;20284;-81
2020/12/31 14:44:09;;;;;;;8.20;4.25;;;;;;;;;;5072297;28;20631;-82
2020/12/31 14:46:36;;;;;;;6.68;5.80;;;;;;;;;;5072225;28;20214;-81
2020/12/31 14:49:03;;;;;;;7.93;4.28;;;;;;;;;;5071067;28;20620;-83
2020/12/31 14:51:32;;;;;;;5.15;3.95;;;;;;;;;;5067589;28;20191;-80